sensor_id;sensor_type;location;lat;lon;timestamp;P1;durP1;ratioP1;P2;durP2;ratioP2
74939;SDS011;63505;45.226;37.908;2023-05-07T00:00:00;12.02;;;2.00;;
74939;SDS011;63505;45.226;37.908;2023-05-07T00:02:26;4.32;;;3.08;;
74939;SDS011;63505;45.226;37.908;2023-05-07T00:04:52;5.07;;;1.98;;
74939;SDS011;63505;45.226;37.908;2023-05-07T00:07:18;5.40;;;2.35;;
74939;SDS011;63505;45.226;37.908;2023-05-07T00:09:44;5.78;;;1.88;;
74939;SDS011;63505;45.226;37.908;2023-05-07T00:12:09;4.05;;;2.10;;
74939;SDS011;63505;45.226;37.908;2023-05-07T00:14:35;4.10;;;2.40;;
74939;SDS011;63505;45.226;37.908;2023-05-07T00:17:01;3.70;;;2.00;;
74939;SDS011;63505;45.226;37.908;2023-05-07T00:19:27;5.93;;;2.00;;
74939;SDS011;63505;45.226;37.908;2023-05-07T00:21:53;4.20;;;1.63;;
74939;SDS011;63505;45.226;37.908;2023-05-07T00:24:19;3.17;;;1.50;;
74939;SDS011;63505;45.226;37.908;2023-05-07T00:26:45;5.93;;;2.25;;
74939;SDS011;63505;45.226;37.908;2023-05-07T00:29:11;4.80;;;2.08;;
74939;SDS011;63505;45.226;37.908;2023-05-07T00:31:37;3.22;;;1.98;;
74939;SDS011;63505;45.226;37.908;2023-05-07T00:34:02;3.25;;;2.28;;
74939;SDS011;63505;45.226;37.908;2023-05-07T00:36:28;3.55;;;1.90;;
74939;SDS011;63505;45.226;37.908;2023-05-07T00:38:56;2.90;;;1.80;;
74939;SDS011;63505;45.226;37.908;2023-05-07T00:41:25;5.90;;;2.28;;
74939;SDS011;63505;45.226;37.908;2023-05-07T00:43:51;4.18;;;1.70;;
74939;SDS011;63505;45.226;37.908;2023-05-07T00:46:18;4.47;;;2.60;;
74939;SDS011;63505;45.226;37.908;2023-05-07T00:48:46;4.88;;;2.35;;
74939;SDS011;63505;45.226;37.908;2023-05-07T00:51:12;7.20;;;2.38;;
74939;SDS011;63505;45.226;37.908;2023-05-07T00:53:38;7.00;;;1.83;;
74939;SDS011;63505;45.226;37.908;2023-05-07T00:56:05;2.88;;;1.63;;
74939;SDS011;63505;45.226;37.908;2023-05-07T00:58:32;4.10;;;2.15;;
74939;SDS011;63505;45.226;37.908;2023-05-07T01:00:59;3.78;;;2.13;;
74939;SDS011;63505;45.226;37.908;2023-05-07T01:03:25;5.15;;;2.90;;
74939;SDS011;63505;45.226;37.908;2023-05-07T01:05:52;6.47;;;1.50;;
74939;SDS011;63505;45.226;37.908;2023-05-07T01:08:20;5.38;;;2.30;;
74939;SDS011;63505;45.226;37.908;2023-05-07T01:10:47;9.82;;;2.92;;
74939;SDS011;63505;45.226;37.908;2023-05-07T01:13:14;7.70;;;2.72;;
74939;SDS011;63505;45.226;37.908;2023-05-07T01:15:41;5.07;;;2.20;;
74939;SDS011;63505;45.226;37.908;2023-05-07T01:18:08;3.28;;;1.45;;
74939;SDS011;63505;45.226;37.908;2023-05-07T01:20:34;3.72;;;1.85;;
74939;SDS011;63505;45.226;37.908;2023-05-07T01:23:01;2.70;;;1.67;;
74939;SDS011;63505;45.226;37.908;2023-05-07T01:25:29;8.30;;;1.55;;
74939;SDS011;63505;45.226;37.908;2023-05-07T01:27:58;5.22;;;2.28;;
74939;SDS011;63505;45.226;37.908;2023-05-07T01:30:30;3.00;;;1.67;;
74939;SDS011;63505;45.226;37.908;2023-05-07T01:33:04;3.97;;;2.25;;
74939;SDS011;63505;45.226;37.908;2023-05-07T01:35:36;5.82;;;2.55;;
74939;SDS011;63505;45.226;37.908;2023-05-07T01:38:04;4.38;;;2.05;;
74939;SDS011;63505;45.226;37.908;2023-05-07T01:40:31;3.67;;;2.10;;
74939;SDS011;63505;45.226;37.908;2023-05-07T01:42:57;9.38;;;1.92;;
74939;SDS011;63505;45.226;37.908;2023-05-07T01:45:23;3.55;;;1.63;;
74939;SDS011;63505;45.226;37.908;2023-05-07T01:47:50;2.80;;;1.23;;
74939;SDS011;63505;45.226;37.908;2023-05-07T01:50:18;4.70;;;2.10;;
74939;SDS011;63505;45.226;37.908;2023-05-07T01:52:46;5.78;;;2.47;;
74939;SDS011;63505;45.226;37.908;2023-05-07T01:55:12;3.13;;;1.98;;
74939;SDS011;63505;45.226;37.908;2023-05-07T01:57:39;3.38;;;1.98;;
74939;SDS011;63505;45.226;37.908;2023-05-07T02:00:05;4.50;;;2.30;;
74939;SDS011;63505;45.226;37.908;2023-05-07T02:02:40;5.03;;;2.10;;
74939;SDS011;63505;45.226;37.908;2023-05-07T02:05:13;2.25;;;1.60;;
74939;SDS011;63505;45.226;37.908;2023-05-07T02:07:40;4.95;;;1.90;;
74939;SDS011;63505;45.226;37.908;2023-05-07T02:10:07;3.25;;;2.00;;
74939;SDS011;63505;45.226;37.908;2023-05-07T02:12:33;5.75;;;1.85;;
74939;SDS011;63505;45.226;37.908;2023-05-07T02:14:59;3.78;;;1.83;;
74939;SDS011;63505;45.226;37.908;2023-05-07T02:17:25;5.50;;;1.85;;
74939;SDS011;63505;45.226;37.908;2023-05-07T02:19:51;3.90;;;1.52;;
74939;SDS011;63505;45.226;37.908;2023-05-07T02:22:17;6.75;;;1.50;;
74939;SDS011;63505;45.226;37.908;2023-05-07T02:24:43;3.17;;;2.10;;
74939;SDS011;63505;45.226;37.908;2023-05-07T02:27:10;7.05;;;1.70;;
74939;SDS011;63505;45.226;37.908;2023-05-07T02:29:36;3.15;;;1.63;;
74939;SDS011;63505;45.226;37.908;2023-05-07T02:32:02;3.88;;;1.70;;
74939;SDS011;63505;45.226;37.908;2023-05-07T02:34:28;5.78;;;2.45;;
74939;SDS011;63505;45.226;37.908;2023-05-07T02:36:54;3.40;;;1.95;;
74939;SDS011;63505;45.226;37.908;2023-05-07T02:39:23;2.90;;;2.28;;
74939;SDS011;63505;45.226;37.908;2023-05-07T02:41:49;8.10;;;1.48;;
74939;SDS011;63505;45.226;37.908;2023-05-07T02:44:15;5.53;;;1.40;;
74939;SDS011;63505;45.226;37.908;2023-05-07T02:46:41;4.10;;;1.20;;
74939;SDS011;63505;45.226;37.908;2023-05-07T02:49:10;3.65;;;1.50;;
74939;SDS011;63505;45.226;37.908;2023-05-07T02:51:36;3.67;;;1.40;;
74939;SDS011;63505;45.226;37.908;2023-05-07T02:54:07;5.10;;;2.10;;
74939;SDS011;63505;45.226;37.908;2023-05-07T02:56:33;5.57;;;1.60;;
74939;SDS011;63505;45.226;37.908;2023-05-07T02:58:58;8.82;;;1.60;;
74939;SDS011;63505;45.226;37.908;2023-05-07T03:01:28;4.90;;;1.60;;
74939;SDS011;63505;45.226;37.908;2023-05-07T03:04:01;3.00;;;1.38;;
74939;SDS011;63505;45.226;37.908;2023-05-07T03:06:27;2.65;;;1.25;;
74939;SDS011;63505;45.226;37.908;2023-05-07T03:08:53;3.42;;;1.60;;
74939;SDS011;63505;45.226;37.908;2023-05-07T03:11:19;2.40;;;1.30;;
74939;SDS011;63505;45.226;37.908;2023-05-07T03:13:45;3.40;;;1.25;;
74939;SDS011;63505;45.226;37.908;2023-05-07T03:16:11;3.85;;;1.17;;
74939;SDS011;63505;45.226;37.908;2023-05-07T03:18:37;6.55;;;1.35;;
74939;SDS011;63505;45.226;37.908;2023-05-07T03:21:03;2.53;;;1.50;;
74939;SDS011;63505;45.226;37.908;2023-05-07T03:23:29;2.70;;;1.27;;
74939;SDS011;63505;45.226;37.908;2023-05-07T03:25:55;11.18;;;1.52;;
74939;SDS011;63505;45.226;37.908;2023-05-07T03:28:20;5.38;;;1.42;;
74939;SDS011;63505;45.226;37.908;2023-05-07T03:30:52;5.65;;;2.03;;
74939;SDS011;63505;45.226;37.908;2023-05-07T03:33:18;4.22;;;1.60;;
74939;SDS011;63505;45.226;37.908;2023-05-07T03:35:44;3.17;;;2.08;;
74939;SDS011;63505;45.226;37.908;2023-05-07T03:40:39;5.22;;;1.10;;
74939;SDS011;63505;45.226;37.908;2023-05-07T03:43:05;8.07;;;1.50;;
74939;SDS011;63505;45.226;37.908;2023-05-07T03:45:33;3.80;;;1.75;;
74939;SDS011;63505;45.226;37.908;2023-05-07T03:48:08;2.53;;;1.50;;
74939;SDS011;63505;45.226;37.908;2023-05-07T03:50:34;6.22;;;1.83;;
74939;SDS011;63505;45.226;37.908;2023-05-07T03:53:00;3.20;;;1.52;;
74939;SDS011;63505;45.226;37.908;2023-05-07T03:55:29;3.60;;;1.42;;
74939;SDS011;63505;45.226;37.908;2023-05-07T03:57:58;3.13;;;1.63;;
74939;SDS011;63505;45.226;37.908;2023-05-07T04:00:26;4.65;;;1.30;;
74939;SDS011;63505;45.226;37.908;2023-05-07T04:02:52;3.05;;;1.30;;
74939;SDS011;63505;45.226;37.908;2023-05-07T04:05:24;3.83;;;1.73;;
74939;SDS011;63505;45.226;37.908;2023-05-07T04:07:55;5.38;;;1.70;;
74939;SDS011;63505;45.226;37.908;2023-05-07T04:10:29;4.25;;;1.77;;
74939;SDS011;63505;45.226;37.908;2023-05-07T04:12:56;2.63;;;1.60;;
74939;SDS011;63505;45.226;37.908;2023-05-07T04:15:24;5.63;;;1.95;;
74939;SDS011;63505;45.226;37.908;2023-05-07T04:17:50;3.75;;;1.42;;
74939;SDS011;63505;45.226;37.908;2023-05-07T04:20:19;4.43;;;1.80;;
74939;SDS011;63505;45.226;37.908;2023-05-07T04:22:50;3.35;;;1.33;;
74939;SDS011;63505;45.226;37.908;2023-05-07T04:25:16;6.18;;;1.40;;
74939;SDS011;63505;45.226;37.908;2023-05-07T04:27:42;2.40;;;1.48;;
74939;SDS011;63505;45.226;37.908;2023-05-07T04:30:08;3.58;;;1.55;;
74939;SDS011;63505;45.226;37.908;2023-05-07T04:32:37;2.53;;;1.40;;
74939;SDS011;63505;45.226;37.908;2023-05-07T04:35:05;3.15;;;1.15;;
74939;SDS011;63505;45.226;37.908;2023-05-07T04:37:32;3.35;;;1.10;;
74939;SDS011;63505;45.226;37.908;2023-05-07T04:39:59;8.75;;;1.25;;
74939;SDS011;63505;45.226;37.908;2023-05-07T04:42:26;3.70;;;1.25;;
74939;SDS011;63505;45.226;37.908;2023-05-07T04:44:52;3.85;;;1.30;;
74939;SDS011;63505;45.226;37.908;2023-05-07T04:47:19;5.20;;;1.98;;
74939;SDS011;63505;45.226;37.908;2023-05-07T04:49:46;4.10;;;1.55;;
74939;SDS011;63505;45.226;37.908;2023-05-07T04:52:12;3.20;;;1.30;;
74939;SDS011;63505;45.226;37.908;2023-05-07T04:54:38;3.75;;;1.55;;
74939;SDS011;63505;45.226;37.908;2023-05-07T04:57:05;3.88;;;1.90;;
74939;SDS011;63505;45.226;37.908;2023-05-07T04:59:31;7.72;;;1.95;;
74939;SDS011;63505;45.226;37.908;2023-05-07T05:01:58;4.63;;;2.20;;
74939;SDS011;63505;45.226;37.908;2023-05-07T05:04:24;6.85;;;1.42;;
74939;SDS011;63505;45.226;37.908;2023-05-07T05:06:51;4.22;;;1.90;;
74939;SDS011;63505;45.226;37.908;2023-05-07T05:09:17;5.60;;;2.05;;
74939;SDS011;63505;45.226;37.908;2023-05-07T05:11:43;4.25;;;1.80;;
74939;SDS011;63505;45.226;37.908;2023-05-07T05:14:09;2.03;;;0.90;;
74939;SDS011;63505;45.226;37.908;2023-05-07T05:16:35;2.60;;;1.45;;
74939;SDS011;63505;45.226;37.908;2023-05-07T05:19:02;4.35;;;1.48;;
74939;SDS011;63505;45.226;37.908;2023-05-07T05:21:30;4.25;;;1.38;;
74939;SDS011;63505;45.226;37.908;2023-05-07T05:24:02;3.40;;;1.30;;
74939;SDS011;63505;45.226;37.908;2023-05-07T05:26:29;2.80;;;1.60;;
74939;SDS011;63505;45.226;37.908;2023-05-07T05:28:56;3.35;;;1.40;;
74939;SDS011;63505;45.226;37.908;2023-05-07T05:31:23;6.25;;;1.90;;
74939;SDS011;63505;45.226;37.908;2023-05-07T05:33:50;6.60;;;1.55;;
74939;SDS011;63505;45.226;37.908;2023-05-07T05:36:16;3.30;;;1.77;;
74939;SDS011;63505;45.226;37.908;2023-05-07T05:38:44;25.80;;;12.70;;
74939;SDS011;63505;45.226;37.908;2023-05-07T05:41:11;18.60;;;10.45;;
74939;SDS011;63505;45.226;37.908;2023-05-07T05:43:36;2.75;;;1.40;;
74939;SDS011;63505;45.226;37.908;2023-05-07T05:46:02;3.30;;;1.40;;
74939;SDS011;63505;45.226;37.908;2023-05-07T05:48:30;3.88;;;2.35;;
74939;SDS011;63505;45.226;37.908;2023-05-07T05:50:57;3.95;;;1.88;;
74939;SDS011;63505;45.226;37.908;2023-05-07T05:53:23;1.73;;;1.25;;
74939;SDS011;63505;45.226;37.908;2023-05-07T05:55:49;4.18;;;1.75;;
74939;SDS011;63505;45.226;37.908;2023-05-07T05:58:16;2.53;;;1.17;;
74939;SDS011;63505;45.226;37.908;2023-05-07T06:00:49;4.47;;;1.15;;
74939;SDS011;63505;45.226;37.908;2023-05-07T06:03:19;2.22;;;1.70;;
74939;SDS011;63505;45.226;37.908;2023-05-07T06:05:46;2.35;;;1.42;;
74939;SDS011;63505;45.226;37.908;2023-05-07T06:08:13;3.47;;;1.08;;
74939;SDS011;63505;45.226;37.908;2023-05-07T06:10:38;4.35;;;1.25;;
74939;SDS011;63505;45.226;37.908;2023-05-07T06:13:07;3.25;;;1.45;;
74939;SDS011;63505;45.226;37.908;2023-05-07T06:15:34;3.58;;;1.30;;
74939;SDS011;63505;45.226;37.908;2023-05-07T06:18:05;4.25;;;1.17;;
74939;SDS011;63505;45.226;37.908;2023-05-07T06:20:31;4.80;;;1.95;;
74939;SDS011;63505;45.226;37.908;2023-05-07T06:22:59;6.93;;;2.15;;
74939;SDS011;63505;45.226;37.908;2023-05-07T06:25:26;54.05;;;25.27;;
74939;SDS011;63505;45.226;37.908;2023-05-07T06:27:52;11.65;;;6.65;;
74939;SDS011;63505;45.226;37.908;2023-05-07T06:30:18;4.63;;;1.70;;
74939;SDS011;63505;45.226;37.908;2023-05-07T06:32:45;4.32;;;2.50;;
74939;SDS011;63505;45.226;37.908;2023-05-07T06:35:12;4.22;;;2.40;;
74939;SDS011;63505;45.226;37.908;2023-05-07T06:37:40;4.07;;;2.30;;
74939;SDS011;63505;45.226;37.908;2023-05-07T06:40:13;4.63;;;1.50;;
74939;SDS011;63505;45.226;37.908;2023-05-07T06:42:40;2.10;;;1.25;;
74939;SDS011;63505;45.226;37.908;2023-05-07T06:45:38;3.10;;;1.33;;
74939;SDS011;63505;45.226;37.908;2023-05-07T06:48:06;3.65;;;1.90;;
74939;SDS011;63505;45.226;37.908;2023-05-07T06:50:41;2.60;;;1.55;;
74939;SDS011;63505;45.226;37.908;2023-05-07T06:53:07;2.88;;;1.20;;
74939;SDS011;63505;45.226;37.908;2023-05-07T06:55:33;5.10;;;1.20;;
74939;SDS011;63505;45.226;37.908;2023-05-07T06:58:00;3.83;;;1.13;;
74939;SDS011;63505;45.226;37.908;2023-05-07T07:00:27;7.18;;;1.80;;
74939;SDS011;63505;45.226;37.908;2023-05-07T07:02:55;5.85;;;1.83;;
74939;SDS011;63505;45.226;37.908;2023-05-07T07:05:23;2.00;;;1.30;;
74939;SDS011;63505;45.226;37.908;2023-05-07T07:07:49;2.47;;;1.58;;
74939;SDS011;63505;45.226;37.908;2023-05-07T07:10:19;6.10;;;1.60;;
74939;SDS011;63505;45.226;37.908;2023-05-07T07:12:46;5.65;;;2.25;;
74939;SDS011;63505;45.226;37.908;2023-05-07T07:15:13;3.75;;;1.52;;
74939;SDS011;63505;45.226;37.908;2023-05-07T07:17:40;5.78;;;1.58;;
74939;SDS011;63505;45.226;37.908;2023-05-07T07:20:06;2.80;;;1.40;;
74939;SDS011;63505;45.226;37.908;2023-05-07T07:22:32;3.40;;;1.30;;
74939;SDS011;63505;45.226;37.908;2023-05-07T07:24:59;4.03;;;1.70;;
74939;SDS011;63505;45.226;37.908;2023-05-07T07:27:25;6.40;;;1.40;;
74939;SDS011;63505;45.226;37.908;2023-05-07T07:29:51;6.18;;;2.03;;
74939;SDS011;63505;45.226;37.908;2023-05-07T07:32:18;5.72;;;2.30;;
74939;SDS011;63505;45.226;37.908;2023-05-07T07:34:44;3.83;;;1.50;;
74939;SDS011;63505;45.226;37.908;2023-05-07T07:37:11;4.78;;;1.45;;
74939;SDS011;63505;45.226;37.908;2023-05-07T07:39:37;3.85;;;1.67;;
74939;SDS011;63505;45.226;37.908;2023-05-07T07:42:04;4.68;;;1.77;;
74939;SDS011;63505;45.226;37.908;2023-05-07T07:44:31;6.85;;;1.60;;
74939;SDS011;63505;45.226;37.908;2023-05-07T07:47:03;4.90;;;1.63;;
74939;SDS011;63505;45.226;37.908;2023-05-07T07:49:29;2.75;;;1.33;;
74939;SDS011;63505;45.226;37.908;2023-05-07T07:51:57;3.60;;;1.30;;
74939;SDS011;63505;45.226;37.908;2023-05-07T07:54:25;2.38;;;1.30;;
74939;SDS011;63505;45.226;37.908;2023-05-07T07:56:51;4.30;;;1.95;;
74939;SDS011;63505;45.226;37.908;2023-05-07T07:59:18;6.18;;;2.10;;
74939;SDS011;63505;45.226;37.908;2023-05-07T08:01:45;3.75;;;1.95;;
74939;SDS011;63505;45.226;37.908;2023-05-07T08:04:14;4.22;;;1.80;;
74939;SDS011;63505;45.226;37.908;2023-05-07T08:06:41;6.50;;;2.15;;
74939;SDS011;63505;45.226;37.908;2023-05-07T08:09:08;3.72;;;1.95;;
74939;SDS011;63505;45.226;37.908;2023-05-07T08:11:35;3.85;;;2.53;;
74939;SDS011;63505;45.226;37.908;2023-05-07T08:14:02;5.15;;;2.40;;
74939;SDS011;63505;45.226;37.908;2023-05-07T08:16:29;4.60;;;2.53;;
74939;SDS011;63505;45.226;37.908;2023-05-07T08:18:55;4.57;;;2.22;;
74939;SDS011;63505;45.226;37.908;2023-05-07T08:21:21;10.82;;;2.42;;
74939;SDS011;63505;45.226;37.908;2023-05-07T08:23:48;6.45;;;2.70;;
74939;SDS011;63505;45.226;37.908;2023-05-07T08:26:14;19.52;;;3.28;;
74939;SDS011;63505;45.226;37.908;2023-05-07T08:28:41;6.50;;;2.45;;
74939;SDS011;63505;45.226;37.908;2023-05-07T08:31:07;4.97;;;2.45;;
74939;SDS011;63505;45.226;37.908;2023-05-07T08:33:36;11.68;;;3.08;;
74939;SDS011;63505;45.226;37.908;2023-05-07T08:36:03;11.30;;;2.80;;
74939;SDS011;63505;45.226;37.908;2023-05-07T08:38:31;10.70;;;3.40;;
74939;SDS011;63505;45.226;37.908;2023-05-07T08:40:57;7.97;;;3.25;;
74939;SDS011;63505;45.226;37.908;2023-05-07T08:43:26;6.35;;;2.72;;
74939;SDS011;63505;45.226;37.908;2023-05-07T08:45:53;5.63;;;2.60;;
74939;SDS011;63505;45.226;37.908;2023-05-07T08:48:24;11.52;;;2.70;;
74939;SDS011;63505;45.226;37.908;2023-05-07T08:50:58;5.18;;;3.15;;
74939;SDS011;63505;45.226;37.908;2023-05-07T08:53:25;10.75;;;3.75;;
74939;SDS011;63505;45.226;37.908;2023-05-07T08:55:51;10.40;;;3.20;;
74939;SDS011;63505;45.226;37.908;2023-05-07T08:58:18;5.80;;;3.00;;
74939;SDS011;63505;45.226;37.908;2023-05-07T09:00:45;7.15;;;2.67;;
74939;SDS011;63505;45.226;37.908;2023-05-07T09:03:12;6.82;;;2.90;;
74939;SDS011;63505;45.226;37.908;2023-05-07T09:05:43;5.57;;;2.60;;
74939;SDS011;63505;45.226;37.908;2023-05-07T09:08:14;5.40;;;3.15;;
74939;SDS011;63505;45.226;37.908;2023-05-07T09:10:41;5.80;;;2.60;;
74939;SDS011;63505;45.226;37.908;2023-05-07T09:13:08;8.90;;;3.72;;
74939;SDS011;63505;45.226;37.908;2023-05-07T09:15:36;5.32;;;2.47;;
74939;SDS011;63505;45.226;37.908;2023-05-07T09:18:01;7.43;;;2.60;;
74939;SDS011;63505;45.226;37.908;2023-05-07T09:20:32;9.77;;;2.53;;
74939;SDS011;63505;45.226;37.908;2023-05-07T09:22:58;4.78;;;1.83;;
74939;SDS011;63505;45.226;37.908;2023-05-07T09:25:28;12.75;;;2.63;;
74939;SDS011;63505;45.226;37.908;2023-05-07T09:27:56;7.00;;;2.30;;
74939;SDS011;63505;45.226;37.908;2023-05-07T09:30:22;7.22;;;3.25;;
74939;SDS011;63505;45.226;37.908;2023-05-07T09:32:49;7.75;;;2.60;;
74939;SDS011;63505;45.226;37.908;2023-05-07T09:35:18;7.10;;;2.72;;
74939;SDS011;63505;45.226;37.908;2023-05-07T09:37:52;7.85;;;3.28;;
74939;SDS011;63505;45.226;37.908;2023-05-07T09:40:26;8.10;;;3.70;;
74939;SDS011;63505;45.226;37.908;2023-05-07T09:42:56;7.70;;;2.85;;
74939;SDS011;63505;45.226;37.908;2023-05-07T09:45:27;7.60;;;3.28;;
74939;SDS011;63505;45.226;37.908;2023-05-07T09:47:55;9.88;;;3.70;;
74939;SDS011;63505;45.226;37.908;2023-05-07T09:50:26;7.50;;;2.95;;
74939;SDS011;63505;45.226;37.908;2023-05-07T09:52:55;3.67;;;2.05;;
74939;SDS011;63505;45.226;37.908;2023-05-07T09:55:23;8.30;;;2.55;;
74939;SDS011;63505;45.226;37.908;2023-05-07T09:57:53;5.45;;;2.00;;
74939;SDS011;63505;45.226;37.908;2023-05-07T10:00:21;8.88;;;3.22;;
74939;SDS011;63505;45.226;37.908;2023-05-07T10:02:48;7.10;;;2.65;;
74939;SDS011;63505;45.226;37.908;2023-05-07T10:05:22;7.35;;;2.72;;
74939;SDS011;63505;45.226;37.908;2023-05-07T10:07:50;8.07;;;2.75;;
74939;SDS011;63505;45.226;37.908;2023-05-07T10:10:18;7.20;;;2.25;;
74939;SDS011;63505;45.226;37.908;2023-05-07T10:12:46;6.75;;;3.38;;
74939;SDS011;63505;45.226;37.908;2023-05-07T10:15:22;11.10;;;3.03;;
74939;SDS011;63505;45.226;37.908;2023-05-07T10:17:53;8.13;;;3.05;;
74939;SDS011;63505;45.226;37.908;2023-05-07T10:20:19;9.35;;;2.70;;
74939;SDS011;63505;45.226;37.908;2023-05-07T10:22:47;3.78;;;2.25;;
74939;SDS011;63505;45.226;37.908;2023-05-07T10:25:23;4.10;;;1.98;;
74939;SDS011;63505;45.226;37.908;2023-05-07T10:27:53;7.28;;;2.30;;
74939;SDS011;63505;45.226;37.908;2023-05-07T10:33:11;6.28;;;2.40;;
74939;SDS011;63505;45.226;37.908;2023-05-07T10:35:43;6.35;;;2.00;;
74939;SDS011;63505;45.226;37.908;2023-05-07T10:38:11;3.67;;;1.70;;
74939;SDS011;63505;45.226;37.908;2023-05-07T10:40:40;3.03;;;1.80;;
74939;SDS011;63505;45.226;37.908;2023-05-07T10:43:07;6.18;;;2.03;;
74939;SDS011;63505;45.226;37.908;2023-05-07T10:45:39;4.38;;;2.45;;
74939;SDS011;63505;45.226;37.908;2023-05-07T10:48:07;9.55;;;1.80;;
74939;SDS011;63505;45.226;37.908;2023-05-07T10:50:34;3.67;;;2.15;;
74939;SDS011;63505;45.226;37.908;2023-05-07T10:58:47;4.43;;;1.70;;
74939;SDS011;63505;45.226;37.908;2023-05-07T11:04:27;3.20;;;1.60;;
74939;SDS011;63505;45.226;37.908;2023-05-07T11:07:24;12.32;;;2.17;;
74939;SDS011;63505;45.226;37.908;2023-05-07T11:09:55;4.90;;;1.58;;
74939;SDS011;63505;45.226;37.908;2023-05-07T11:15:08;3.03;;;1.35;;
74939;SDS011;63505;45.226;37.908;2023-05-07T11:17:53;3.38;;;1.60;;
74939;SDS011;63505;45.226;37.908;2023-05-07T11:26:18;2.60;;;1.00;;
74939;SDS011;63505;45.226;37.908;2023-05-07T11:28:45;5.30;;;1.55;;
74939;SDS011;63505;45.226;37.908;2023-05-07T11:31:11;9.85;;;1.67;;
74939;SDS011;63505;45.226;37.908;2023-05-07T11:33:39;5.07;;;1.05;;
74939;SDS011;63505;45.226;37.908;2023-05-07T11:36:08;5.18;;;1.90;;
74939;SDS011;63505;45.226;37.908;2023-05-07T11:38:40;2.72;;;0.90;;
74939;SDS011;63505;45.226;37.908;2023-05-07T11:41:06;3.28;;;1.23;;
74939;SDS011;63505;45.226;37.908;2023-05-07T11:43:32;2.92;;;0.98;;
74939;SDS011;63505;45.226;37.908;2023-05-07T11:46:11;6.30;;;2.00;;
74939;SDS011;63505;45.226;37.908;2023-05-07T11:48:38;4.97;;;1.25;;
74939;SDS011;63505;45.226;37.908;2023-05-07T11:51:05;7.03;;;2.20;;
74939;SDS011;63505;45.226;37.908;2023-05-07T11:53:36;5.05;;;2.13;;
74939;SDS011;63505;45.226;37.908;2023-05-07T11:56:06;1.67;;;1.00;;
74939;SDS011;63505;45.226;37.908;2023-05-07T11:58:33;8.25;;;2.53;;
74939;SDS011;63505;45.226;37.908;2023-05-07T12:00:58;7.28;;;2.00;;
74939;SDS011;63505;45.226;37.908;2023-05-07T12:03:24;4.03;;;1.38;;
74939;SDS011;63505;45.226;37.908;2023-05-07T12:05:50;4.68;;;1.60;;
74939;SDS011;63505;45.226;37.908;2023-05-07T12:10:43;2.63;;;1.63;;
74939;SDS011;63505;45.226;37.908;2023-05-07T12:13:20;6.40;;;1.95;;
74939;SDS011;63505;45.226;37.908;2023-05-07T12:15:56;4.38;;;1.45;;
74939;SDS011;63505;45.226;37.908;2023-05-07T12:18:22;8.30;;;1.67;;
74939;SDS011;63505;45.226;37.908;2023-05-07T12:20:49;16.80;;;9.48;;
74939;SDS011;63505;45.226;37.908;2023-05-07T12:23:15;5.00;;;2.75;;
74939;SDS011;63505;45.226;37.908;2023-05-07T12:25:42;4.50;;;1.63;;
74939;SDS011;63505;45.226;37.908;2023-05-07T12:28:18;2.35;;;1.33;;
74939;SDS011;63505;45.226;37.908;2023-05-07T12:30:45;7.10;;;1.90;;
74939;SDS011;63505;45.226;37.908;2023-05-07T12:33:16;4.32;;;1.80;;
74939;SDS011;63505;45.226;37.908;2023-05-07T12:35:43;2.55;;;1.15;;
74939;SDS011;63505;45.226;37.908;2023-05-07T12:38:10;6.07;;;2.08;;
74939;SDS011;63505;45.226;37.908;2023-05-07T12:40:41;2.95;;;1.27;;
74939;SDS011;63505;45.226;37.908;2023-05-07T12:43:15;3.97;;;1.58;;
74939;SDS011;63505;45.226;37.908;2023-05-07T12:46:05;6.68;;;1.50;;
74939;SDS011;63505;45.226;37.908;2023-05-07T12:48:32;8.85;;;1.92;;
74939;SDS011;63505;45.226;37.908;2023-05-07T12:51:01;5.80;;;1.77;;
74939;SDS011;63505;45.226;37.908;2023-05-07T12:53:28;11.57;;;5.00;;
74939;SDS011;63505;45.226;37.908;2023-05-07T12:55:57;13.15;;;7.38;;
74939;SDS011;63505;45.226;37.908;2023-05-07T12:58:25;7.70;;;2.05;;
74939;SDS011;63505;45.226;37.908;2023-05-07T13:00:56;5.13;;;2.50;;
74939;SDS011;63505;45.226;37.908;2023-05-07T13:03:26;3.20;;;1.70;;
74939;SDS011;63505;45.226;37.908;2023-05-07T13:05:54;3.28;;;1.98;;
74939;SDS011;63505;45.226;37.908;2023-05-07T13:10:58;9.32;;;2.25;;
74939;SDS011;63505;45.226;37.908;2023-05-07T13:13:25;4.47;;;1.88;;
74939;SDS011;63505;45.226;37.908;2023-05-07T13:15:51;6.53;;;2.00;;
74939;SDS011;63505;45.226;37.908;2023-05-07T13:18:17;3.78;;;1.75;;
74939;SDS011;63505;45.226;37.908;2023-05-07T13:20:43;5.20;;;2.22;;
74939;SDS011;63505;45.226;37.908;2023-05-07T13:23:09;6.10;;;2.47;;
74939;SDS011;63505;45.226;37.908;2023-05-07T13:25:35;4.90;;;2.20;;
74939;SDS011;63505;45.226;37.908;2023-05-07T13:28:01;4.38;;;2.15;;
74939;SDS011;63505;45.226;37.908;2023-05-07T13:30:28;3.92;;;2.17;;
74939;SDS011;63505;45.226;37.908;2023-05-07T13:32:55;4.30;;;1.80;;
74939;SDS011;63505;45.226;37.908;2023-05-07T13:35:21;4.95;;;1.58;;
74939;SDS011;63505;45.226;37.908;2023-05-07T13:37:47;5.55;;;2.30;;
74939;SDS011;63505;45.226;37.908;2023-05-07T13:40:17;5.60;;;1.85;;
74939;SDS011;63505;45.226;37.908;2023-05-07T13:42:44;25.20;;;11.20;;
74939;SDS011;63505;45.226;37.908;2023-05-07T13:45:10;8.07;;;4.20;;
74939;SDS011;63505;45.226;37.908;2023-05-07T13:47:40;6.75;;;3.22;;
74939;SDS011;63505;45.226;37.908;2023-05-07T13:50:07;4.93;;;2.30;;
74939;SDS011;63505;45.226;37.908;2023-05-07T13:52:34;5.40;;;1.90;;
74939;SDS011;63505;45.226;37.908;2023-05-07T13:55:00;3.78;;;2.17;;
74939;SDS011;63505;45.226;37.908;2023-05-07T13:57:26;6.68;;;2.30;;
74939;SDS011;63505;45.226;37.908;2023-05-07T13:59:52;5.85;;;2.35;;
74939;SDS011;63505;45.226;37.908;2023-05-07T14:02:18;5.68;;;1.95;;
74939;SDS011;63505;45.226;37.908;2023-05-07T14:04:43;8.98;;;2.25;;
74939;SDS011;63505;45.226;37.908;2023-05-07T14:07:10;4.22;;;1.88;;
74939;SDS011;63505;45.226;37.908;2023-05-07T14:09:36;8.48;;;2.40;;
74939;SDS011;63505;45.226;37.908;2023-05-07T14:12:01;6.43;;;1.95;;
74939;SDS011;63505;45.226;37.908;2023-05-07T14:14:28;8.43;;;2.83;;
74939;SDS011;63505;45.226;37.908;2023-05-07T14:16:53;6.03;;;2.42;;
74939;SDS011;63505;45.226;37.908;2023-05-07T14:19:19;3.03;;;1.90;;
74939;SDS011;63505;45.226;37.908;2023-05-07T14:21:47;4.28;;;1.95;;
74939;SDS011;63505;45.226;37.908;2023-05-07T14:24:14;3.47;;;1.80;;
74939;SDS011;63505;45.226;37.908;2023-05-07T14:26:40;6.32;;;2.40;;
74939;SDS011;63505;45.226;37.908;2023-05-07T14:29:06;6.75;;;2.78;;
74939;SDS011;63505;45.226;37.908;2023-05-07T14:31:32;10.00;;;2.42;;
74939;SDS011;63505;45.226;37.908;2023-05-07T14:33:58;3.88;;;2.35;;
74939;SDS011;63505;45.226;37.908;2023-05-07T14:36:24;8.27;;;7.20;;
74939;SDS011;63505;45.226;37.908;2023-05-07T14:38:55;162.27;;;83.95;;
74939;SDS011;63505;45.226;37.908;2023-05-07T14:41:24;196.43;;;178.88;;
74939;SDS011;63505;45.226;37.908;2023-05-07T14:43:50;905.95;;;653.05;;
74939;SDS011;63505;45.226;37.908;2023-05-07T14:46:16;968.47;;;505.98;;
74939;SDS011;63505;45.226;37.908;2023-05-07T14:48:43;1706.13;;;883.90;;
74939;SDS011;63505;45.226;37.908;2023-05-07T14:51:10;1836.05;;;994.83;;
74939;SDS011;63505;45.226;37.908;2023-05-07T14:53:37;1999.90;;;999.90;;
74939;SDS011;63505;45.226;37.908;2023-05-07T14:56:03;1999.90;;;999.90;;
74939;SDS011;63505;45.226;37.908;2023-05-07T14:58:30;1402.07;;;850.20;;
74939;SDS011;63505;45.226;37.908;2023-05-07T15:00:56;1999.90;;;999.90;;